Carey, Texas
Current Conditions -  °F | °C
As of 6:53 PM on Monday 26 Jan 2015 (Local Time) from KCDS Reporting Station
Clear Clear  
Wind Chill: 61°   Ceiling: Unl
Heat Index: 61°   Visibility: 10mi
Dew Point: 34°   Wind: 5mph
Humidity: 36%   Direction: 320°NW
Pressure: 30.13"   Gusts: NA
Location:  34.47°N, 100.33°W
Report Text: KCDS 270053Z AUTO 32004KT 10SM CLR 16/01 A3013 RMK AO2 SLP198 T01610011
Loading
Personal Weather Stations






























Interactive Weather Map New forecast layout! Learn more

10-Day Weather Forecast

Advertisements
Track Severe Weather on mobile